Time;durP1;ratioP1;P1;durP2;ratioP2;P2;SDS_P1;SDS_P2;PMS_P1;PMS_P2;Temp;Humidity;BMP_temperature;BMP_pressure;BME280_temperature;BME280_humidity;BME280_pressure;Samples;Min_cycle;Max_cycle;Signal;HPM_P1;HPM_P2
2022/12/30 00:00:03;;;;;;;23.80;13.90;;;;;;;5.59;72.77;98563.66;2316687;77;21050;-81
2022/12/30 00:03:04;;;;;;;26.20;14.03;;;;;;;5.54;72.95;98579.48;2316794;77;20931;-80
2022/12/30 00:06:04;;;;;;;22.80;13.50;;;;;;;5.50;73.05;98575.05;2316609;77;20939;-81
2022/12/30 00:09:05;;;;;;;22.97;14.00;;;;;;;5.48;73.27;98571.55;2316414;77;21377;-82
2022/12/30 00:34:57;;;;;;;24.70;13.67;;;;;;;5.15;74.47;98557.63;2286403;78;20927;-82
2022/12/30 00:37:58;;;;;;;21.73;13.57;;;;;;;5.13;74.66;98561.47;2286586;78;20943;-82
2022/12/30 00:44:17;;;;;;;20.53;13.20;;;;;;;5.10;74.79;98555.80;2286274;78;21322;-82
2022/12/30 00:47:17;;;;;;;25.37;13.97;;;;;;;5.09;74.86;98564.39;2286032;78;21006;-83
2022/12/30 00:56:55;;;;;;;28.70;14.67;;;;;;;5.18;74.88;98568.07;2285598;78;21003;-82
2022/12/30 00:59:55;;;;;;;21.47;13.47;;;;;;;5.22;75.12;98568.66;2285501;78;21023;-83
2022/12/30 01:02:56;;;;;;;22.80;13.50;;;;;;;5.25;75.02;98573.50;2285497;78;20946;-83
2022/12/30 01:05:56;;;;;;;22.60;13.63;;;;;;;5.29;74.87;98577.05;2285620;78;20915;-81
2022/12/30 01:08:57;;;;;;;21.30;14.20;;;;;;;5.30;74.86;98577.52;2285476;78;20997;-81
2022/12/30 01:12:09;;;;;;;25.07;13.20;;;;;;;5.30;74.87;98578.80;2285557;78;21295;-82
2022/12/30 01:15:06;;;;;;;19.17;12.20;;;;;;;5.28;74.79;98572.29;2285516;78;20971;-83
2022/12/30 01:18:07;;;;;;;20.73;13.33;;;;;;;5.30;74.87;98576.22;2296049;77;21056;-82
2022/12/30 01:21:07;;;;;;;21.43;13.13;;;;;;;5.31;74.88;98576.67;2303703;77;20893;-82
2022/12/30 01:24:07;;;;;;;22.27;13.07;;;;;;;5.25;74.80;98570.03;2303501;77;21348;-82
2022/12/30 01:27:08;;;;;;;24.63;13.90;;;;;;;5.28;74.87;98572.70;2303639;77;20937;-83
2022/12/30 01:30:08;;;;;;;19.33;11.80;;;;;;;5.29;74.84;98566.28;2303643;77;20976;-81
2022/12/30 01:33:09;;;;;;;21.50;13.43;;;;;;;5.29;74.84;98561.52;2303729;77;20976;-82
2022/12/30 01:36:09;;;;;;;22.17;13.47;;;;;;;5.30;74.84;98561.98;2303646;77;21359;-83
2022/12/30 01:39:09;;;;;;;27.57;13.60;;;;;;;5.30;74.91;98555.09;2303710;77;21295;-82
2022/12/30 01:42:10;;;;;;;22.37;13.13;;;;;;;5.28;74.69;98557.18;2303782;77;20941;-83
2022/12/30 01:45:10;;;;;;;25.03;13.23;;;;;;;5.24;74.85;98555.34;2303707;77;20953;-82
2022/12/30 01:48:11;;;;;;;25.07;13.00;;;;;;;5.29;75.08;98556.34;2303084;77;20981;-82
2022/12/30 01:51:11;;;;;;;20.47;11.97;;;;;;;5.33;75.00;98564.66;2303772;77;20969;-82
2022/12/30 01:54:11;;;;;;;21.93;11.63;;;;;;;5.37;75.00;98554.43;2303404;77;20949;-82
2022/12/30 01:57:12;;;;;;;24.93;12.47;;;;;;;5.42;75.00;98545.08;2303601;77;20942;-81
2022/12/30 02:00:12;;;;;;;73.13;14.10;;;;;;;5.45;74.85;98546.88;2303249;77;20953;-82
2022/12/30 02:03:12;;;;;;;28.20;12.07;;;;;;;5.46;74.76;98548.62;2303644;77;20933;-82
2022/12/30 02:06:13;;;;;;;22.43;12.43;;;;;;;5.47;74.81;98541.32;2303599;77;20889;-82
2022/12/30 02:09:13;;;;;;;20.90;12.13;;;;;;;5.50;74.71;98538.81;2303517;77;21004;-82
2022/12/30 02:12:14;;;;;;;20.43;11.93;;;;;;;5.55;74.58;98539.81;2303601;77;20920;-82
2022/12/30 02:15:14;;;;;;;21.10;10.63;;;;;;;5.59;74.50;98537.77;2303380;77;20995;-81
2022/12/30 02:18:14;;;;;;;20.90;12.07;;;;;;;5.65;74.24;98543.10;2310992;76;21402;-81
2022/12/30 02:21:15;;;;;;;26.57;11.03;;;;;;;5.70;74.22;98546.69;2316815;77;20904;-82
2022/12/30 02:24:15;;;;;;;13.40;10.73;;;;;;;5.75;74.02;98558.05;2317080;77;20975;-85
2022/12/30 02:27:16;;;;;;;26.23;12.80;;;;;;;5.79;73.88;98551.65;2316729;77;21303;-83
2022/12/30 02:30:18;;;;;;;19.50;10.87;;;;;;;5.81;73.85;98552.14;2316889;77;20967;-83
2022/12/30 02:33:17;;;;;;;18.70;11.10;;;;;;;5.83;73.78;98548.30;2316860;77;20923;-83
2022/12/30 02:36:17;;;;;;;20.17;11.00;;;;;;;5.84;73.73;98559.12;2317071;77;20907;-83
2022/12/30 02:39:17;;;;;;;20.23;10.80;;;;;;;5.80;73.76;98566.35;2317258;77;20988;-84
2022/12/30 02:45:37;;;;;;;19.50;10.83;;;;;;;5.73;74.03;98567.91;2317153;77;21319;-84
2022/12/30 02:48:37;;;;;;;25.97;11.30;;;;;;;5.70;74.08;98566.11;2317107;77;20971;-84
2022/12/30 02:54:56;;;;;;;20.47;11.83;;;;;;;5.68;74.26;98556.12;2317141;77;20965;-83
2022/12/30 02:57:56;;;;;;;25.53;11.57;;;;;;;5.67;74.28;98555.67;2317127;77;20915;-84
2022/12/30 03:04:16;;;;;;;18.17;10.37;;;;;;;5.65;74.38;98562.94;2316960;77;21323;-84
2022/12/30 03:07:16;;;;;;;22.97;11.10;;;;;;;5.67;74.43;98557.38;2316578;77;21275;-83
2022/12/30 03:13:35;;;;;;;19.30;11.20;;;;;;;5.60;74.64;98560.23;2317021;77;20946;-83
2022/12/30 03:16:36;;;;;;;20.43;9.67;;;;;;;5.63;74.64;98564.61;2316946;77;20903;-82
2022/12/30 03:19:36;;;;;;;16.07;10.37;;;;;;;5.63;74.67;98568.50;2303628;77;21001;-82
2022/12/30 03:29:14;;;;;;;14.00;9.63;;;;;;;5.69;74.48;98584.20;2303402;77;20973;-83
2022/12/30 03:32:14;;;;;;;16.23;9.07;;;;;;;5.72;74.37;98582.98;2303848;77;21001;-82
2022/12/30 03:35:15;;;;;;;16.93;9.23;;;;;;;5.73;74.31;98584.32;2303965;77;21006;-84
2022/12/30 03:38:15;;;;;;;13.07;9.23;;;;;;;5.74;74.26;98582.61;2303722;77;20894;-83
2022/12/30 03:41:15;;;;;;;21.07;9.17;;;;;;;5.78;74.21;98581.85;2303466;77;21287;-82
2022/12/30 03:44:16;;;;;;;11.87;8.70;;;;;;;5.78;74.12;98578.39;2303881;77;21266;-84
2022/12/30 03:47:16;;;;;;;16.87;9.70;;;;;;;5.79;74.05;98581.02;2302323;77;20953;-83
2022/12/30 03:50:16;;;;;;;15.93;9.40;;;;;;;5.80;74.00;98583.19;2251287;79;21007;-83
2022/12/30 03:53:17;;;;;;;16.23;10.00;;;;;;;5.80;73.89;98585.36;2248921;79;21393;-83
2022/12/30 03:56:17;;;;;;;13.90;9.93;;;;;;;5.83;73.98;98581.97;2249144;79;21069;-83
2022/12/30 03:59:18;;;;;;;14.90;9.37;;;;;;;5.84;73.86;98585.02;2270791;78;21305;-83
2022/12/30 04:02:18;;;;;;;12.30;9.13;;;;;;;5.84;73.85;98591.50;2281473;77;20970;-83
2022/12/30 04:05:18;;;;;;;13.27;8.53;;;;;;;5.88;73.89;98601.98;2281433;78;20957;-83
2022/12/30 04:08:19;;;;;;;14.17;8.93;;;;;;;5.94;73.81;98600.00;2281673;77;21030;-84
2022/12/30 04:11:20;;;;;;;14.87;9.17;;;;;;;5.99;73.78;98594.10;2260252;78;21845;-82
2022/12/30 04:14:20;;;;;;;15.93;9.60;;;;;;;6.08;73.68;98604.28;2281424;77;20990;-83
2022/12/30 04:17:21;;;;;;;16.33;10.20;;;;;;;6.13;73.63;98600.09;2282151;77;20964;-81
2022/12/30 04:20:21;;;;;;;16.67;10.17;;;;;;;6.15;73.59;98608.36;2291001;78;20936;-85
2022/12/30 04:23:22;;;;;;;16.47;10.00;;;;;;;6.16;73.50;98617.89;2290683;78;20892;-83
2022/12/30 04:26:22;;;;;;;15.10;10.00;;;;;;;6.17;73.48;98628.71;2290573;78;20919;-84
2022/12/30 04:29:22;;;;;;;16.90;9.47;;;;;;;6.17;73.39;98628.71;2290235;78;21393;-84
2022/12/30 04:32:23;;;;;;;14.43;9.80;;;;;;;6.20;73.46;98629.20;2290909;78;20944;-85
2022/12/30 04:35:23;;;;;;;14.80;10.27;;;;;;;6.19;73.22;98624.86;2291053;78;21268;-84
2022/12/30 04:38:24;;;;;;;15.33;9.60;;;;;;;6.17;74.12;98627.41;2291401;78;21008;-83
2022/12/30 04:41:24;;;;;;;14.07;9.50;;;;;;;6.22;74.46;98624.52;2291296;77;21306;-83
2022/12/30 04:44:24;;;;;;;18.13;10.80;;;;;;;6.23;73.60;98623.69;2290769;78;20901;-84
2022/12/30 04:47:25;;;;;;;14.17;9.17;;;;;;;6.19;73.38;98627.03;2290604;77;20914;-84
2022/12/30 04:50:25;;;;;;;15.93;10.70;;;;;;;6.17;73.58;98631.30;2290072;78;21658;-83
2022/12/30 04:53:26;;;;;;;15.90;9.73;;;;;;;6.16;73.54;98635.15;2289915;77;20920;-83
2022/12/30 04:56:26;;;;;;;13.93;9.63;;;;;;;6.11;73.58;98635.03;2289238;78;20995;-83
2022/12/30 04:59:26;;;;;;;15.87;9.77;;;;;;;6.04;73.78;98636.97;2289373;78;21321;-84
2022/12/30 05:02:27;;;;;;;15.57;10.00;;;;;;;6.00;73.89;98653.27;2289805;78;20924;-83
2022/12/30 05:05:27;;;;;;;12.60;8.87;;;;;;;5.98;74.13;98656.24;2290259;78;20896;-84
2022/12/30 05:08:28;;;;;;;14.47;10.77;;;;;;;5.97;74.40;98662.26;2290683;78;21730;-83
2022/12/30 05:11:28;;;;;;;30.50;10.27;;;;;;;5.94;74.41;98660.88;2290218;78;20977;-84
2022/12/30 05:14:29;;;;;;;20.30;10.67;;;;;;;5.93;74.49;98659.13;2290540;78;20955;-83
2022/12/30 05:17:29;;;;;;;21.23;10.90;;;;;;;5.95;74.62;98666.11;2290213;78;20909;-83
2022/12/30 05:20:29;;;;;;;16.63;11.30;;;;;;;5.96;74.68;98675.63;2289860;78;20987;-83
2022/12/30 05:26:49;;;;;;;16.43;11.47;;;;;;;6.02;74.74;98671.03;2290571;77;20968;-84
2022/12/30 05:29:49;;;;;;;18.33;11.13;;;;;;;6.04;74.72;98677.14;2290798;78;21326;-79
2022/12/30 05:32:49;;;;;;;29.73;11.60;;;;;;;6.04;74.78;98684.48;2290327;78;21007;-82
2022/12/30 05:35:50;;;;;;;25.37;11.03;;;;;;;6.08;74.75;98693.26;2291358;78;20936;-83
2022/12/30 05:38:50;;;;;;;18.00;11.03;;;;;;;6.09;74.82;98702.79;2291609;78;20975;-83
2022/12/30 05:41:51;;;;;;;21.30;11.37;;;;;;;6.10;74.82;98708.84;2291459;78;20991;-83
2022/12/30 05:44:51;;;;;;;25.67;11.53;;;;;;;6.11;74.86;98720.55;2292320;78;20956;-83
2022/12/30 05:47:51;;;;;;;100.83;14.43;;;;;;;6.10;75.02;98721.39;2291226;78;20976;-83
2022/12/30 05:50:52;;;;;;;19.50;11.43;;;;;;;6.11;75.30;98723.56;2290411;78;20905;-82
2022/12/30 05:53:52;;;;;;;14.57;10.20;;;;;;;6.15;75.39;98727.58;2289323;78;20916;-84
2022/12/30 05:56:52;;;;;;;22.63;12.47;;;;;;;6.15;75.28;98737.94;2290799;78;21379;-83
2022/12/30 05:59:53;;;;;;;45.50;14.53;;;;;;;6.11;75.39;98734.80;2290597;78;20956;-83
2022/12/30 06:02:53;;;;;;;18.73;12.43;;;;;;;6.87;78.25;98744.58;2290105;78;20948;-82
2022/12/30 06:05:54;;;;;;;20.33;11.63;;;;;;;6.82;75.44;98741.00;2289206;78;20948;-81
2022/12/30 06:08:54;;;;;;;20.03;11.73;;;;;;;6.66;75.05;98742.33;2289319;78;20951;-84
2022/12/30 06:11:54;;;;;;;25.97;13.80;;;;;;;6.54;74.95;98744.61;2289122;78;20944;-82
2022/12/30 06:14:55;;;;;;;20.40;13.40;;;;;;;6.64;76.12;98750.91;2289115;78;20955;-80
2022/12/30 06:17:55;;;;;;;29.03;13.50;;;;;;;6.56;75.17;98764.97;2287590;78;20957;-82
2022/12/30 06:20:59;;;;;;;21.67;13.70;;;;;;;6.51;75.16;98763.98;2279385;78;20976;-82
2022/12/30 06:23:59;;;;;;;28.70;13.40;;;;;;;6.44;75.22;98768.95;2279074;78;21310;-81
2022/12/30 06:26:59;;;;;;;20.60;14.07;;;;;;;6.37;75.33;98762.73;2279625;78;20922;-82
2022/12/30 06:30:00;;;;;;;22.43;13.47;;;;;;;6.32;75.44;98772.97;2279311;78;21041;-84
2022/12/30 06:33:01;;;;;;;27.90;15.40;;;;;;;6.29;75.80;98773.31;2279170;78;20878;-82
2022/12/30 06:36:00;;;;;;;21.83;14.87;;;;;;;6.27;76.03;98772.39;2279129;78;20918;-82
2022/12/30 06:39:01;;;;;;;22.47;14.67;;;;;;;6.29;76.18;98785.85;2279130;78;21775;-84
2022/12/30 06:42:01;;;;;;;25.20;14.70;;;;;;;6.27;76.10;98803.08;2279429;78;20957;-83
2022/12/30 06:45:02;;;;;;;25.63;16.13;;;;;;;6.25;76.15;98808.64;2278726;78;20930;-82
2022/12/30 06:48:02;;;;;;;25.00;14.87;;;;;;;6.22;76.12;98815.03;2278715;78;20949;-81
2022/12/30 06:51:02;;;;;;;21.20;14.43;;;;;;;6.22;76.24;98817.63;2279711;78;20949;-83
2022/12/30 06:54:03;;;;;;;54.87;34.63;;;;;;;6.21;76.67;98816.28;2279896;78;20953;-83
2022/12/30 06:57:03;;;;;;;40.07;22.60;;;;;;;6.18;77.05;98822.26;2280318;78;21270;-82
2022/12/30 07:00:04;;;;;;;28.30;17.17;;;;;;;6.17;77.54;98810.13;2281273;78;20942;-84
2022/12/30 07:03:07;;;;;;;29.23;17.30;;;;;;;6.13;77.84;98809.59;2280508;78;21397;-84
2022/12/30 07:06:07;;;;;;;24.00;15.80;;;;;;;6.09;78.02;98806.45;2280137;78;20949;-83
2022/12/30 07:09:08;;;;;;;21.63;15.07;;;;;;;6.05;78.00;98813.63;2280144;78;20973;-83
2022/12/30 07:12:08;;;;;;;24.23;14.90;;;;;;;6.04;78.26;98815.77;2279807;78;20910;-82
2022/12/30 07:15:08;;;;;;;25.40;14.70;;;;;;;6.02;78.30;98823.49;2279719;78;21297;-83
2022/12/30 07:18:09;;;;;;;22.30;15.07;;;;;;;6.04;78.37;98833.91;2280296;77;20947;-83
2022/12/30 07:21:09;;;;;;;25.03;15.70;;;;;;;6.03;78.44;98841.21;2288790;78;20991;-82
2022/12/30 07:24:12;;;;;;;23.97;15.30;;;;;;;6.04;78.74;98839.08;2265115;78;20975;-82
2022/12/30 07:27:12;;;;;;;26.00;14.97;;;;;;;6.07;78.95;98856.05;2288811;78;21336;-82
2022/12/30 07:30:12;;;;;;;22.80;14.67;;;;;;;6.04;79.00;98855.93;2288973;78;20937;-81
2022/12/30 07:33:13;;;;;;;19.50;14.90;;;;;;;6.05;79.09;98865.05;2289341;78;20916;-82
2022/12/30 07:36:13;;;;;;;21.67;15.10;;;;;;;6.03;79.20;98861.94;2288932;78;20953;-81
2022/12/30 07:39:13;;;;;;;24.43;15.57;;;;;;;6.03;79.33;98869.30;2289161;78;20943;-79
2022/12/30 07:42:14;;;;;;;23.53;15.87;;;;;;;6.05;79.52;98873.23;2288908;78;20908;-81
2022/12/30 07:45:19;;;;;;;28.57;19.80;;;;;;;6.08;79.64;98865.58;2290297;78;20913;-81
2022/12/30 07:48:17;;;;;;;43.77;29.33;;;;;;;6.06;79.75;98869.81;2267639;78;20999;-81
2022/12/30 07:51:20;;;;;;;25.47;17.23;;;;;;;6.05;79.88;98865.05;2290604;78;20992;-80
2022/12/30 07:54:20;;;;;;;24.83;15.57;;;;;;;6.11;80.20;98875.16;2290234;78;20880;-82
2022/12/30 07:57:21;;;;;;;25.20;15.20;;;;;;;6.14;80.01;98886.50;2290085;78;20908;-82
2022/12/30 08:00:21;;;;;;;25.07;15.30;;;;;;;6.15;80.09;98887.38;2289799;78;20912;-82
2022/12/30 08:03:22;;;;;;;22.87;14.93;;;;;;;6.17;80.11;98898.67;2289465;78;20881;-81
2022/12/30 08:06:22;;;;;;;26.23;16.20;;;;;;;6.17;80.28;98902.14;2290313;78;20968;-82
2022/12/30 08:09:22;;;;;;;24.07;15.43;;;;;;;6.22;80.47;98904.88;2289942;78;20945;-82
2022/12/30 08:12:23;;;;;;;25.10;14.83;;;;;;;6.19;80.57;98913.44;2290028;78;20944;-80
2022/12/30 08:15:24;;;;;;;25.13;15.47;;;;;;;6.20;80.63;98924.27;2289501;78;21746;-82
2022/12/30 08:18:24;;;;;;;23.07;14.33;;;;;;;6.22;80.64;98929.50;2287182;78;21804;-81
2022/12/30 08:21:24;;;;;;;24.60;14.80;;;;;;;6.25;80.86;98939.54;2278444;78;20964;-81
2022/12/30 08:24:24;;;;;;;24.60;15.37;;;;;;;6.27;80.84;98948.24;2278673;78;20914;-81
2022/12/30 08:27:25;;;;;;;24.07;14.17;;;;;;;6.30;80.77;98950.93;2278894;78;20914;-81
2022/12/30 08:30:25;;;;;;;24.60;15.23;;;;;;;6.35;80.75;98955.84;2279198;78;20910;-80
2022/12/30 08:33:26;;;;;;;24.17;15.53;;;;;;;6.41;80.67;98959.03;2278365;78;21667;-83
2022/12/30 08:36:26;;;;;;;23.17;15.60;;;;;;;6.51;80.52;98968.84;2278746;78;21001;-82
2022/12/30 08:39:27;;;;;;;26.80;15.23;;;;;;;6.63;80.33;98978.70;2278703;78;20922;-80
2022/12/30 08:42:27;;;;;;;45.90;26.43;;;;;;;6.74;80.19;98981.19;2278360;78;20949;-83
2022/12/30 08:45:27;;;;;;;33.63;17.87;;;;;;;6.83;80.13;98987.05;2278123;78;20951;-82
2022/12/30 08:48:28;;;;;;;27.33;17.20;;;;;;;6.94;80.00;98997.36;2278168;78;20974;-81
2022/12/30 08:51:28;;;;;;;24.37;17.17;;;;;;;7.01;79.80;98997.58;2278250;78;20962;-81
2022/12/30 08:54:29;;;;;;;24.60;16.27;;;;;;;7.08;79.62;99003.82;2278487;78;20930;-82
2022/12/30 08:57:29;;;;;;;24.23;15.97;;;;;;;7.10;79.51;99006.04;2278657;78;21239;-81
2022/12/30 09:00:29;;;;;;;22.33;15.00;;;;;;;7.14;79.40;99000.52;2278602;78;20964;-82
2022/12/30 09:03:30;;;;;;;25.00;15.50;;;;;;;7.20;79.37;99005.45;2278962;78;21304;-82
2022/12/30 09:06:30;;;;;;;23.73;15.67;;;;;;;7.29;79.57;99000.94;2278983;78;20934;-83
2022/12/30 09:09:31;;;;;;;28.23;16.37;;;;;;;7.32;79.87;99003.61;2279322;78;21094;-82
2022/12/30 09:12:31;;;;;;;24.93;15.60;;;;;;;7.34;79.72;99009.73;2279689;78;21332;-81
2022/12/30 09:15:31;;;;;;;27.50;15.73;;;;;;;7.29;80.22;99007.42;2279858;78;21038;-81
2022/12/30 09:18:32;;;;;;;28.80;16.03;;;;;;;7.25;80.28;99012.95;2280441;77;20952;-81
2022/12/30 09:21:32;;;;;;;22.83;15.57;;;;;;;7.24;80.07;99016.80;2289430;78;21330;-82
2022/12/30 09:24:33;;;;;;;23.03;16.13;;;;;;;7.22;80.16;99019.78;2289875;78;20951;-81
2022/12/30 09:27:33;;;;;;;22.27;15.10;;;;;;;7.18;80.14;99021.41;2290143;78;20980;-83
2022/12/30 09:30:33;;;;;;;25.00;15.80;;;;;;;7.12;80.21;99025.55;2289509;78;21327;-82
2022/12/30 09:33:34;;;;;;;22.03;14.87;;;;;;;7.09;80.16;99024.16;2289640;78;20915;-82
2022/12/30 09:36:34;;;;;;;25.03;16.87;;;;;;;7.07;80.25;99032.33;2290150;78;20889;-83
2022/12/30 09:39:35;;;;;;;28.03;17.27;;;;;;;7.05;80.24;99025.80;2290009;78;20912;-81
2022/12/30 09:45:54;;;;;;;26.10;18.13;;;;;;;7.19;80.42;99027.48;2289395;77;20916;-81
2022/12/30 09:48:54;;;;;;;45.30;26.57;;;;;;;7.28;80.52;99025.14;2289493;78;21326;-81
2022/12/30 09:51:55;;;;;;;28.17;17.80;;;;;;;7.38;80.36;99023.25;2290264;78;21413;-77
2022/12/30 09:54:55;;;;;;;27.60;19.43;;;;;;;7.46;80.16;99023.05;2289020;78;20928;-77
2022/12/30 09:57:55;;;;;;;26.90;17.07;;;;;;;7.51;80.09;99017.55;2289037;78;21011;-77
2022/12/30 10:00:56;;;;;;;22.63;15.63;;;;;;;7.57;79.83;99019.02;2288498;78;21355;-77
2022/12/30 10:03:59;;;;;;;24.43;15.57;;;;;;;7.60;79.64;99016.49;2289148;78;20916;-77
2022/12/30 10:07:02;;;;;;;26.73;15.33;;;;;;;7.61;79.45;99016.95;2287992;78;21715;-78
2022/12/30 10:10:00;;;;;;;23.40;14.93;;;;;;;7.60;79.27;99022.11;2289081;78;20939;-78
2022/12/30 10:13:00;;;;;;;26.87;16.97;;;;;;;7.57;79.32;99024.20;2288848;78;20964;-78
2022/12/30 10:16:04;;;;;;;26.03;17.50;;;;;;;7.59;79.41;99023.83;2288505;78;21292;-78
2022/12/30 10:19:04;;;;;;;28.73;19.87;;;;;;;7.61;79.37;99018.67;2285691;78;20961;-76
2022/12/30 10:22:05;;;;;;;37.67;24.67;;;;;;;7.60;79.36;99026.89;2277599;78;21600;-78
2022/12/30 10:25:05;;;;;;;35.87;22.67;;;;;;;7.63;79.42;99026.97;2277606;78;20977;-77
2022/12/30 10:28:05;;;;;;;32.80;20.63;;;;;;;7.67;79.38;99026.20;2277632;78;20960;-77
2022/12/30 10:31:07;;;;;;;29.40;17.67;;;;;;;7.72;79.50;99029.34;2278428;78;20910;-77
2022/12/30 10:34:09;;;;;;;29.53;17.93;;;;;;;7.68;79.02;99034.88;2278518;78;20933;-77
2022/12/30 10:37:09;;;;;;;33.17;19.83;;;;;;;7.67;79.55;99036.59;2277928;78;20905;-78
2022/12/30 10:40:10;;;;;;;30.27;18.70;;;;;;;7.72;79.16;99032.82;2278236;78;20918;-78
2022/12/30 10:43:10;;;;;;;33.53;18.80;;;;;;;7.76;79.11;99030.77;2278823;78;21001;-78
2022/12/30 10:46:11;;;;;;;32.80;17.87;;;;;;;7.82;78.99;99027.48;2279026;78;20922;-78
2022/12/30 10:49:11;;;;;;;25.77;16.73;;;;;;;7.86;79.00;99026.72;2278917;78;21376;-78
2022/12/30 10:52:11;;;;;;;29.17;18.50;;;;;;;7.93;78.87;99028.62;2278272;78;21017;-79
2022/12/30 10:55:12;;;;;;;25.60;16.57;;;;;;;7.99;78.75;99026.18;2277803;78;21330;-78
2022/12/30 10:58:12;;;;;;;25.27;14.77;;;;;;;8.06;78.68;99033.28;2277320;78;20954;-78
2022/12/30 11:01:13;;;;;;;25.07;15.30;;;;;;;8.13;78.07;99024.80;2276758;78;20910;-78
2022/12/30 11:04:13;;;;;;;25.80;15.33;;;;;;;8.16;77.88;99025.29;2277877;78;20929;-79
2022/12/30 11:07:13;;;;;;;20.77;14.73;;;;;;;8.19;77.78;99028.84;2277105;78;21282;-77
2022/12/30 11:10:14;;;;;;;21.63;14.57;;;;;;;8.21;77.63;99025.86;2277901;78;20977;-80
2022/12/30 11:16:33;;;;;;;22.40;14.50;;;;;;;8.28;77.79;99012.16;2278519;78;21366;-79
2022/12/30 11:19:34;;;;;;;20.67;13.23;;;;;;;8.39;77.51;99007.23;2268885;77;20948;-81
2022/12/30 11:22:34;;;;;;;21.23;14.83;;;;;;;8.46;76.04;99012.16;2246898;78;20964;-82
2022/12/30 11:25:34;;;;;;;26.60;14.33;;;;;;;8.49;76.27;99012.23;2246856;78;20967;-81
2022/12/30 11:28:35;;;;;;;20.77;13.83;;;;;;;8.61;76.36;99027.69;2246187;79;20940;-80
2022/12/30 11:31:35;;;;;;;40.73;16.73;;;;;;;8.79;76.18;99024.65;2246271;79;20956;-81
2022/12/30 11:34:36;;;;;;;27.10;14.93;;;;;;;8.93;75.03;99029.73;2246112;79;20959;-80
2022/12/30 11:37:36;;;;;;;33.87;15.57;;;;;;;8.97;74.99;99027.19;2246354;79;20912;-81
2022/12/30 11:40:37;;;;;;;23.53;13.90;;;;;;;8.92;75.33;99030.57;2247015;79;20920;-80
2022/12/30 11:43:37;;;;;;;24.37;14.27;;;;;;;8.82;75.21;99035.13;2247127;79;20877;-80
2022/12/30 11:46:37;;;;;;;22.57;13.27;;;;;;;8.67;75.22;99032.19;2247384;79;21011;-80
2022/12/30 11:49:38;;;;;;;29.23;12.77;;;;;;;8.52;75.18;99026.61;2246703;78;20980;-81
2022/12/30 11:52:38;;;;;;;17.73;10.27;;;;;;;8.56;74.59;99020.63;2246035;79;21344;-83
2022/12/30 11:55:39;;;;;;;13.40;9.77;;;;;;;8.56;74.59;99020.63;2247129;79;21296;-79
2022/12/30 11:58:39;;;;;;;17.40;9.70;;;;;;;8.60;74.88;99017.25;2246797;78;20893;-80
2022/12/30 12:01:39;;;;;;;20.27;9.17;;;;;;;8.66;74.07;99015.20;2246604;79;20913;-81
2022/12/30 12:04:40;;;;;;;18.43;10.53;;;;;;;8.71;73.45;99018.82;2246484;78;21343;-80
2022/12/30 12:07:40;;;;;;;20.90;10.17;;;;;;;8.74;73.33;99021.48;2247496;79;20948;-81
2022/12/30 12:10:41;;;;;;;20.07;10.27;;;;;;;8.78;73.17;99018.98;2246920;79;20928;-80
2022/12/30 12:13:41;;;;;;;18.10;10.63;;;;;;;8.81;73.38;99013.84;2246547;79;20941;-81
2022/12/30 12:16:41;;;;;;;18.33;9.00;;;;;;;8.84;72.98;99020.42;2246375;79;20959;-80
2022/12/30 12:19:42;;;;;;;17.67;8.67;;;;;;;8.86;72.40;99027.84;2255198;77;21435;-80
2022/12/30 12:22:42;;;;;;;18.37;8.60;;;;;;;8.87;72.85;99024.39;2286729;78;20968;-81
2022/12/30 12:25:43;;;;;;;15.97;9.30;;;;;;;8.87;72.12;99026.99;2287020;78;20881;-79
2022/12/30 12:28:43;;;;;;;15.93;9.10;;;;;;;8.85;72.20;99029.98;2285258;78;20940;-80
2022/12/30 12:31:43;;;;;;;14.37;8.87;;;;;;;8.84;72.08;99023.02;2287182;78;20960;-82
2022/12/30 12:34:46;;;;;;;17.07;8.70;;;;;;;8.84;72.22;99026.05;2287564;78;20950;-82
2022/12/30 12:37:47;;;;;;;16.50;9.03;;;;;;;8.85;72.05;99027.38;2288009;78;20907;-80
2022/12/30 12:40:47;;;;;;;12.97;8.97;;;;;;;8.86;72.31;99033.05;2288208;78;20912;-82
2022/12/30 12:43:48;;;;;;;15.30;10.67;;;;;;;8.87;72.13;99032.20;2288394;78;21369;-81
2022/12/30 12:46:48;;;;;;;18.57;11.00;;;;;;;8.87;71.66;99027.41;2287190;78;20913;-82
2022/12/30 12:49:48;;;;;;;23.80;11.50;;;;;;;8.87;71.73;99036.53;2287407;78;20975;-80
2022/12/30 12:52:49;;;;;;;16.57;8.73;;;;;;;8.88;72.18;99035.68;2287377;78;21653;-81
2022/12/30 12:55:49;;;;;;;29.30;9.47;;;;;;;8.86;71.74;99034.77;2287992;78;20970;-82
2022/12/30 12:58:50;;;;;;;26.07;9.20;;;;;;;8.86;71.57;99029.56;2288369;78;20912;-81
2022/12/30 13:01:50;;;;;;;19.67;9.77;;;;;;;8.83;71.03;99033.41;2288385;78;21588;-81
2022/12/30 13:04:50;;;;;;;18.67;10.47;;;;;;;8.78;70.67;99032.00;2288391;78;20971;-80
2022/12/30 13:07:51;;;;;;;22.77;9.33;;;;;;;8.77;70.82;99033.27;2287938;78;20908;-81
2022/12/30 13:10:51;;;;;;;15.10;8.40;;;;;;;8.75;70.95;99031.05;2286509;78;21427;-83
2022/12/30 13:13:52;;;;;;;16.70;8.37;;;;;;;8.73;70.72;99027.54;2287041;78;20991;-81
2022/12/30 13:16:52;;;;;;;17.03;7.77;;;;;;;8.70;70.37;99027.47;2287551;78;20916;-81
2022/12/30 13:19:52;;;;;;;16.83;8.37;;;;;;;8.62;70.60;99028.15;2285321;78;20946;-80
2022/12/30 13:22:53;;;;;;;16.00;8.37;;;;;;;8.60;70.63;99027.66;2277001;78;21033;-80
2022/12/30 13:25:53;;;;;;;19.27;7.97;;;;;;;8.56;71.02;99031.91;2276243;77;21401;-80
2022/12/30 13:28:54;;;;;;;16.23;8.13;;;;;;;8.53;71.24;99029.66;2276964;78;20937;-80
2022/12/30 13:31:54;;;;;;;13.60;7.03;;;;;;;8.49;71.38;99030.02;2276892;77;20946;-81
2022/12/30 13:34:56;;;;;;;14.77;7.50;;;;;;;8.44;71.31;99029.03;2276849;78;20906;-80
2022/12/30 13:37:55;;;;;;;10.70;6.40;;;;;;;8.38;71.61;99024.98;2278119;77;20969;-81
2022/12/30 13:40:55;;;;;;;18.40;7.77;;;;;;;8.31;71.59;99021.33;2279475;78;20959;-82
2022/12/30 13:43:56;;;;;;;21.23;7.30;;;;;;;8.23;71.90;99015.07;2279705;77;20973;-81
2022/12/30 13:46:56;;;;;;;42.77;8.40;;;;;;;8.19;72.14;99006.74;2280236;77;20915;-81
2022/12/30 13:49:56;;;;;;;20.67;8.30;;;;;;;8.13;72.40;99001.39;2279541;78;20985;-80
2022/12/30 13:52:57;;;;;;;14.87;8.03;;;;;;;8.05;72.74;99002.05;2279607;77;21635;-80
2022/12/30 13:55:57;;;;;;;12.23;6.60;;;;;;;7.96;72.96;99007.91;2279295;78;20938;-80
2022/12/30 13:58:58;;;;;;;15.20;7.67;;;;;;;7.86;73.26;99012.42;2279667;78;20965;-80
2022/12/30 14:01:58;;;;;;;25.63;8.47;;;;;;;7.78;73.42;99008.72;2279973;77;20902;-81
2022/12/30 14:05:00;;;;;;;15.70;7.80;;;;;;;7.72;73.62;99014.63;2279943;78;20918;-81
2022/12/30 14:07:59;;;;;;;14.43;7.47;;;;;;;7.63;73.67;99015.70;2280057;78;21333;-81
2022/12/30 14:10:59;;;;;;;19.53;7.33;;;;;;;7.55;73.85;99027.61;2280111;77;20918;-81
2022/12/30 14:14:00;;;;;;;15.30;8.20;;;;;;;7.44;74.02;99033.81;2280525;78;20975;-80
2022/12/30 14:17:00;;;;;;;15.73;7.13;;;;;;;7.34;74.22;99035.70;2279701;78;21301;-81
2022/12/30 14:20:04;;;;;;;16.20;8.17;;;;;;;7.01;74.77;99032.61;2273200;77;20920;-80
2022/12/30 14:23:03;;;;;;;168.23;92.20;;;;;;;7.01;74.77;99032.61;2248189;79;20920;-80
2022/12/30 14:26:04;;;;;;;29.03;16.00;;;;;;;6.87;75.03;99039.09;2248518;79;20916;-81
2022/12/30 14:29:04;;;;;;;19.30;10.20;;;;;;;6.71;75.42;99039.05;2248073;79;21012;-82
2022/12/30 14:32:05;;;;;;;13.97;8.43;;;;;;;6.53;75.82;99038.91;2248144;79;20970;-80
2022/12/30 14:35:05;;;;;;;11.70;7.30;;;;;;;6.32;76.07;99032.22;2248585;78;21288;-80
2022/12/30 14:38:06;;;;;;;10.10;6.83;;;;;;;6.13;76.17;99040.66;2248046;78;20936;-80
2022/12/30 14:41:06;;;;;;;13.37;7.17;;;;;;;5.90;76.45;99034.69;2247714;79;20912;-81
2022/12/30 14:44:06;;;;;;;12.17;6.33;;;;;;;5.68;76.89;99039.13;2247606;78;20896;-80
2022/12/30 14:47:07;;;;;;;11.43;7.50;;;;;;;5.50;77.30;99048.84;2247691;78;20948;-80
2022/12/30 14:50:07;;;;;;;10.77;6.73;;;;;;;5.34;77.88;99049.13;2247603;79;20944;-80
2022/12/30 14:53:07;;;;;;;13.10;8.37;;;;;;;5.21;78.42;99048.23;2248448;79;20965;-81
2022/12/30 14:56:08;;;;;;;16.33;8.70;;;;;;;5.08;78.92;99050.34;2248009;78;20912;-82
2022/12/30 14:59:08;;;;;;;14.13;8.30;;;;;;;4.95;79.18;99053.71;2248953;79;20956;-82
2022/12/30 15:02:08;;;;;;;12.30;8.50;;;;;;;4.82;79.47;99056.25;2249461;78;20924;-81